createdAt,value
2018-11-11T00:02:23.348Z,4.57
2018-11-11T00:04:51.235Z,4.70
2018-11-11T00:07:18.940Z,4.90
2018-11-11T00:09:46.551Z,5.17
2018-11-11T00:12:14.520Z,5.20
2018-11-11T00:14:42.106Z,4.60
2018-11-11T00:17:09.812Z,4.53
2018-11-11T00:19:37.433Z,4.23
2018-11-11T00:22:05.227Z,4.23
2018-11-11T00:24:32.824Z,4.93
2018-11-11T00:27:00.548Z,4.80
2018-11-11T00:29:28.148Z,4.47
2018-11-11T00:31:55.788Z,4.30
2018-11-11T00:34:23.418Z,4.47
2018-11-11T00:36:51.005Z,4.70
2018-11-11T00:39:18.667Z,10.07
2018-11-11T00:41:46.265Z,15.53
2018-11-11T00:44:13.844Z,19.20
2018-11-11T00:46:41.510Z,27.20
2018-11-11T00:49:09.211Z,29.30
2018-11-11T00:51:36.789Z,27.97
2018-11-11T00:54:04.529Z,31.07
2018-11-11T00:56:32.127Z,28.33
2018-11-11T00:58:59.652Z,26.70
2018-11-11T01:01:27.613Z,25.97
2018-11-11T01:03:55.208Z,20.00
2018-11-11T01:06:22.796Z,17.23
2018-11-11T01:08:50.461Z,14.23
2018-11-11T01:11:18.081Z,11.65
2018-11-11T01:13:45.635Z,11.70
2018-11-11T01:16:13.600Z,10.70
2018-11-11T01:18:41.230Z,10.90
2018-11-11T01:21:09.079Z,9.17
2018-11-11T01:23:36.720Z,11.20
2018-11-11T01:26:04.423Z,11.27
2018-11-11T01:28:32.012Z,10.07
2018-11-11T01:30:59.588Z,12.33
2018-11-11T01:33:27.234Z,10.23
2018-11-11T01:35:54.959Z,13.80
2018-11-11T01:38:22.543Z,11.80
2018-11-11T01:40:50.457Z,9.27
2018-11-11T01:43:18.589Z,11.03
2018-11-11T01:45:46.136Z,9.00
2018-11-11T01:48:13.776Z,10.40
2018-11-11T01:50:41.454Z,10.50
2018-11-11T01:53:09.097Z,9.23
2018-11-11T01:55:36.691Z,9.40
2018-11-11T01:58:04.643Z,8.83
2018-11-11T02:00:32.217Z,8.00
2018-11-11T02:02:59.872Z,8.93
2018-11-11T02:05:27.485Z,10.10
2018-11-11T02:07:55.168Z,11.57
2018-11-11T02:10:23.030Z,11.50
2018-11-11T02:12:50.676Z,9.83
2018-11-11T02:15:18.329Z,8.13
2018-11-11T02:17:46.095Z,8.53
2018-11-11T02:20:17.810Z,8.47
2018-11-11T02:22:46.145Z,7.10
2018-11-11T02:25:13.829Z,9.10
2018-11-11T02:27:41.455Z,7.67
2018-11-11T02:30:11.667Z,7.33
2018-11-11T02:32:39.832Z,10.23
2018-11-11T02:35:07.504Z,7.87
2018-11-11T02:37:35.322Z,8.35
2018-11-11T02:40:03.922Z,8.83
2018-11-11T02:42:31.510Z,9.53
2018-11-11T02:44:59.116Z,10.17
2018-11-11T02:47:27.047Z,8.60
2018-11-11T02:49:54.646Z,10.83
2018-11-11T02:52:22.684Z,8.83
2018-11-11T02:54:50.508Z,11.00
2018-11-11T02:57:18.080Z,9.40
2018-11-11T02:59:45.709Z,8.77
2018-11-11T03:02:13.317Z,8.30
2018-11-11T03:04:40.895Z,9.07
2018-11-11T03:07:08.598Z,8.50
2018-11-11T03:09:36.178Z,6.87
2018-11-11T03:12:03.885Z,6.67
2018-11-11T03:14:31.511Z,7.73
2018-11-11T03:16:59.190Z,10.57
2018-11-11T03:19:26.812Z,7.93
2018-11-11T03:21:54.411Z,11.10
2018-11-11T03:24:22.161Z,11.37
2018-11-11T03:26:49.716Z,10.80
2018-11-11T03:29:17.298Z,9.87
2018-11-11T03:31:44.918Z,9.40
2018-11-11T03:34:12.934Z,9.77
2018-11-11T03:36:40.489Z,9.00
2018-11-11T03:39:08.967Z,10.13
2018-11-11T03:41:36.918Z,7.73
2018-11-11T03:44:04.811Z,8.03
2018-11-11T03:46:32.392Z,19.37
2018-11-11T03:49:00.067Z,18.23
2018-11-11T03:51:27.640Z,14.53
2018-11-11T03:53:55.268Z,12.27
2018-11-11T03:56:22.829Z,10.90
2018-11-11T03:58:50.565Z,9.10
2018-11-11T04:01:18.189Z,8.33
2018-11-11T04:03:46.137Z,9.87
2018-11-11T04:06:13.753Z,8.93
2018-11-11T04:08:41.388Z,9.10
2018-11-11T04:11:09.055Z,7.00
2018-11-11T04:13:36.755Z,6.40
2018-11-11T04:16:04.546Z,9.40
2018-11-11T04:18:32.244Z,8.67
2018-11-11T04:21:00.080Z,14.23
2018-11-11T04:23:27.773Z,18.20
2018-11-11T04:25:55.586Z,11.07
2018-11-11T04:28:23.193Z,11.30
2018-11-11T04:30:50.829Z,11.33
2018-11-11T04:33:18.495Z,11.13
2018-11-11T04:35:46.547Z,10.37
2018-11-11T04:38:14.176Z,9.83
2018-11-11T04:40:41.774Z,8.60
2018-11-11T04:43:09.355Z,6.97
2018-11-11T04:45:36.976Z,7.30
2018-11-11T04:48:04.904Z,6.47
2018-11-11T04:50:32.840Z,5.50
2018-11-11T04:53:00.441Z,7.00
2018-11-11T04:55:28.117Z,7.53
2018-11-11T04:57:55.687Z,7.77
2018-11-11T05:00:23.340Z,6.80
2018-11-11T05:02:50.953Z,6.47
2018-11-11T05:05:18.548Z,6.40
2018-11-11T05:07:46.428Z,6.40
2018-11-11T05:10:14.053Z,5.73
2018-11-11T05:12:41.685Z,4.87
2018-11-11T05:15:10.476Z,4.37
2018-11-11T05:17:38.335Z,5.00
2018-11-11T05:20:06.872Z,5.03
2018-11-11T05:22:34.527Z,5.60
2018-11-11T05:25:02.219Z,7.00
2018-11-11T05:27:29.925Z,6.20
2018-11-11T05:29:57.587Z,7.33
2018-11-11T05:32:25.200Z,10.17
2018-11-11T05:34:52.797Z,7.13
2018-11-11T05:37:20.736Z,9.80
2018-11-11T05:39:48.405Z,10.47
2018-11-11T05:42:16.280Z,10.07
2018-11-11T05:44:44.464Z,7.93
2018-11-11T05:47:12.101Z,8.57
2018-11-11T05:49:39.724Z,7.63
2018-11-11T05:52:07.374Z,7.03
2018-11-11T05:54:34.964Z,5.93
2018-11-11T05:57:02.599Z,5.80
2018-11-11T05:59:30.163Z,7.13
2018-11-11T06:01:57.776Z,7.40
2018-11-11T06:04:25.361Z,9.27
2018-11-11T06:06:52.956Z,11.00
2018-11-11T06:09:21.216Z,24.37
2018-11-11T06:11:48.860Z,22.70
2018-11-11T06:14:16.431Z,26.47
2018-11-11T06:16:44.037Z,20.67
2018-11-11T06:19:11.595Z,17.67
2018-11-11T06:21:39.576Z,17.07
2018-11-11T06:24:07.164Z,18.83
2018-11-11T06:26:35.100Z,25.43
2018-11-11T06:29:02.697Z,23.50
2018-11-11T06:31:30.328Z,19.73
2018-11-11T06:33:57.963Z,19.63
2018-11-11T06:36:25.635Z,15.73
2018-11-11T06:38:53.244Z,19.37
2018-11-11T06:41:20.857Z,17.53
2018-11-11T06:43:48.458Z,20.00
2018-11-11T06:46:16.062Z,19.20
2018-11-11T06:48:44.048Z,14.83
2018-11-11T06:51:11.696Z,14.03
2018-11-11T06:53:39.277Z,12.87
2018-11-11T06:56:06.865Z,12.90
2018-11-11T06:58:34.464Z,13.37
2018-11-11T07:01:02.062Z,13.07
2018-11-11T07:03:41.046Z,16.03
2018-11-11T07:06:08.652Z,12.67
2018-11-11T07:08:36.259Z,10.93
2018-11-11T07:11:03.972Z,8.27
2018-11-11T07:13:31.540Z,14.73
2018-11-11T07:15:59.297Z,13.37
2018-11-11T07:18:26.913Z,12.57
2018-11-11T07:20:54.508Z,17.70
2018-11-11T07:23:22.106Z,14.57
2018-11-11T07:25:49.632Z,15.53
2018-11-11T07:28:17.224Z,15.87
2018-11-11T07:30:44.776Z,12.43
2018-11-11T07:33:12.344Z,14.87
2018-11-11T07:35:40.140Z,17.50
2018-11-11T07:38:07.896Z,14.90
2018-11-11T07:40:35.512Z,17.77
2018-11-11T07:43:03.173Z,19.37
2018-11-11T07:45:30.825Z,21.63
2018-11-11T07:47:58.548Z,19.53
2018-11-11T07:50:26.080Z,19.33
2018-11-11T07:52:53.704Z,16.97
2018-11-11T07:55:21.368Z,18.87
2018-11-11T07:57:48.969Z,19.80
2018-11-11T08:00:16.639Z,20.15
2018-11-11T08:02:44.291Z,18.57
2018-11-11T08:05:11.863Z,18.50
2018-11-11T08:07:39.478Z,17.93
2018-11-11T08:10:18.516Z,19.10
2018-11-11T08:12:46.115Z,20.10
2018-11-11T08:15:13.747Z,19.27
2018-11-11T08:17:41.600Z,18.82
2018-11-11T08:20:09.243Z,17.80
2018-11-11T08:22:37.056Z,15.80
2018-11-11T08:25:05.093Z,14.20
2018-11-11T08:27:33.061Z,13.15
2018-11-11T08:30:00.704Z,13.90
2018-11-11T08:32:28.478Z,14.10
2018-11-11T08:34:56.020Z,13.20
2018-11-11T08:37:24.065Z,13.72
2018-11-11T08:39:51.668Z,11.90
2018-11-11T08:42:19.281Z,13.18
2018-11-11T08:44:47.010Z,10.82
2018-11-11T08:47:14.656Z,10.03
2018-11-11T08:49:42.363Z,9.75
2018-11-11T08:52:09.957Z,10.18
2018-11-11T08:54:37.574Z,9.73
2018-11-11T08:57:05.247Z,8.70
2018-11-11T08:59:33.044Z,8.60
2018-11-11T09:02:00.609Z,7.50
2018-11-11T09:04:28.249Z,7.45
2018-11-11T09:06:56.108Z,7.40
2018-11-11T09:09:23.715Z,7.12
2018-11-11T09:11:51.298Z,6.80
2018-11-11T09:14:18.900Z,6.20
2018-11-11T09:16:46.558Z,5.67
2018-11-11T09:19:14.218Z,5.25
2018-11-11T09:21:41.781Z,5.72
2018-11-11T09:24:09.364Z,5.20
2018-11-11T09:26:36.960Z,4.20
2018-11-11T09:29:05.106Z,3.70
2018-11-11T09:31:32.665Z,4.03
2018-11-11T09:34:00.251Z,4.08
2018-11-11T09:36:27.832Z,4.10
2018-11-11T09:38:55.484Z,3.40
2018-11-11T09:41:23.021Z,2.45
2018-11-11T09:43:50.803Z,2.60
2018-11-11T09:46:18.447Z,2.30
2018-11-11T09:48:46.117Z,1.98
2018-11-11T09:51:13.674Z,2.00
2018-11-11T09:53:42.263Z,2.25
2018-11-11T09:56:09.824Z,2.27
2018-11-11T09:58:37.478Z,1.98
2018-11-11T10:01:05.087Z,1.90
2018-11-11T10:03:39.625Z,1.82
2018-11-11T10:06:14.202Z,1.83
2018-11-11T10:10:50.981Z,2.17
2018-11-11T10:13:34.358Z,1.80
2018-11-11T10:16:41.542Z,1.90
2018-11-11T10:19:14.672Z,1.60
2018-11-11T10:22:18.020Z,1.92
2018-11-11T10:25:05.725Z,2.10
2018-11-11T10:27:44.869Z,2.02
2018-11-11T10:30:19.809Z,2.15
2018-11-11T10:33:03.527Z,2.05
2018-11-11T10:35:39.196Z,2.33
2018-11-11T10:38:12.860Z,2.65
2018-11-11T10:40:44.516Z,3.35
2018-11-11T10:43:17.929Z,2.20
2018-11-11T10:45:50.747Z,1.80
2018-11-11T10:48:22.521Z,1.90
2018-11-11T10:50:53.691Z,2.15
2018-11-11T10:53:21.605Z,2.00
2018-11-11T10:55:49.304Z,1.90
2018-11-11T10:58:17.137Z,1.72
2018-11-11T11:00:50.441Z,1.55
2018-11-11T11:03:23.605Z,1.42
2018-11-11T11:05:51.620Z,1.72
2018-11-11T11:08:19.433Z,1.10
2018-11-11T11:10:47.095Z,2.33
2018-11-11T11:13:14.741Z,1.55
2018-11-11T11:15:42.510Z,1.42
2018-11-11T11:18:10.127Z,1.45
2018-11-11T11:20:37.772Z,1.40
2018-11-11T11:23:05.887Z,0.90
2018-11-11T11:25:33.479Z,1.25
2018-11-11T11:28:01.109Z,1.27
2018-11-11T11:30:28.877Z,1.10
2018-11-11T11:32:56.928Z,1.15
2018-11-11T11:35:24.627Z,1.40
2018-11-11T11:37:52.273Z,2.05
2018-11-11T11:40:19.935Z,1.07
2018-11-11T11:42:47.545Z,0.98
2018-11-11T11:45:15.348Z,1.32
2018-11-11T11:47:43.052Z,0.90
2018-11-11T11:50:11.841Z,1.27
2018-11-11T11:52:39.628Z,1.20
2018-11-11T11:55:07.995Z,1.00
2018-11-11T11:57:35.683Z,1.25
2018-11-11T12:00:03.736Z,1.30
2018-11-11T12:02:31.464Z,1.00
2018-11-11T12:04:59.088Z,1.30
2018-11-11T12:07:26.780Z,1.40
2018-11-11T12:09:54.449Z,1.12
2018-11-11T12:12:22.057Z,1.40
2018-11-11T12:14:49.716Z,1.25
2018-11-11T12:17:17.456Z,1.22
2018-11-11T12:19:45.050Z,1.10
2018-11-11T12:22:12.697Z,1.30
2018-11-11T12:24:40.431Z,1.35
2018-11-11T12:27:08.056Z,1.25
2018-11-11T12:29:36.209Z,1.00
2018-11-11T12:32:03.965Z,1.50
2018-11-11T12:34:31.581Z,1.80
2018-11-11T12:36:59.231Z,1.20
2018-11-11T12:39:26.876Z,1.37
2018-11-11T12:41:54.455Z,1.02
2018-11-11T12:44:22.165Z,1.00
2018-11-11T12:46:49.908Z,0.90
2018-11-11T12:49:18.844Z,1.55
2018-11-11T12:51:47.153Z,1.10
2018-11-11T12:54:14.812Z,1.17
2018-11-11T12:56:42.468Z,1.30
2018-11-11T12:59:10.065Z,2.02
2018-11-11T13:01:37.662Z,1.20
2018-11-11T13:04:05.446Z,2.40
2018-11-11T13:06:33.052Z,2.60
2018-11-11T13:09:00.664Z,2.12
2018-11-11T13:11:28.344Z,4.40
2018-11-11T13:13:55.957Z,6.12
2018-11-11T13:16:23.580Z,4.03
2018-11-11T13:18:51.222Z,2.90
2018-11-11T13:21:18.879Z,1.85
2018-11-11T13:23:46.484Z,4.08
2018-11-11T13:26:14.113Z,1.95
2018-11-11T13:28:41.756Z,2.50
2018-11-11T13:31:09.391Z,1.77
2018-11-11T13:33:37.105Z,1.95
2018-11-11T13:36:04.819Z,1.62
2018-11-11T13:38:32.472Z,1.95
2018-11-11T13:41:00.423Z,1.75
2018-11-11T13:43:28.351Z,2.67
2018-11-11T13:45:56.104Z,1.77
2018-11-11T13:48:24.389Z,1.57
2018-11-11T13:50:52.104Z,1.20
2018-11-11T13:53:19.758Z,1.65
2018-11-11T13:55:47.471Z,1.00
2018-11-11T13:58:15.066Z,1.17
2018-11-11T14:00:42.756Z,1.60
2018-11-11T14:03:10.455Z,1.10
2018-11-11T14:05:38.096Z,1.10
2018-11-11T14:08:05.921Z,1.42
2018-11-11T14:10:33.489Z,1.10
2018-11-11T14:13:01.124Z,1.17
2018-11-11T14:15:28.785Z,1.50
2018-11-11T14:17:56.795Z,1.02
2018-11-11T14:20:25.213Z,1.80
2018-11-11T14:22:54.069Z,1.70
2018-11-11T14:25:25.737Z,1.60
2018-11-11T14:27:53.363Z,2.12
2018-11-11T14:30:22.381Z,2.40
2018-11-11T14:32:51.899Z,2.20
2018-11-11T14:35:21.783Z,3.08
2018-11-11T14:37:50.777Z,2.00
2018-11-11T14:40:25.188Z,1.70
2018-11-11T14:42:54.450Z,1.92
2018-11-11T14:45:23.438Z,2.00
2018-11-11T14:47:54.172Z,2.30
2018-11-11T14:50:23.755Z,1.67
2018-11-11T14:52:51.778Z,1.57
2018-11-11T14:55:20.706Z,1.50
2018-11-11T14:57:48.414Z,1.70
2018-11-11T15:00:18.919Z,1.12
2018-11-11T15:02:50.089Z,1.75
2018-11-11T15:05:17.745Z,2.20
2018-11-11T15:07:45.411Z,2.17
2018-11-11T15:10:13.510Z,1.60
2018-11-11T15:12:41.536Z,1.70
2018-11-11T15:15:13.632Z,1.85
2018-11-11T15:17:41.608Z,2.17
2018-11-11T15:20:10.525Z,2.92
2018-11-11T15:22:38.575Z,2.77
2018-11-11T15:25:08.479Z,3.15
2018-11-11T15:27:36.220Z,2.98
2018-11-11T15:30:04.275Z,2.45
2018-11-11T15:32:31.950Z,2.20
2018-11-11T15:34:59.547Z,2.17
2018-11-11T15:37:27.206Z,2.10
2018-11-11T15:39:54.883Z,1.90
2018-11-11T15:42:22.572Z,2.10
2018-11-11T15:44:50.250Z,1.60
2018-11-11T15:47:17.912Z,1.65
2018-11-11T15:52:22.331Z,3.00
2018-11-11T15:54:50.399Z,2.67
2018-11-11T15:57:18.009Z,2.67
2018-11-11T15:59:45.594Z,3.25
2018-11-11T16:02:13.289Z,2.70
2018-11-11T16:04:40.941Z,4.10
2018-11-11T16:07:08.608Z,3.92
2018-11-11T16:09:36.282Z,2.90
2018-11-11T16:12:03.975Z,2.58
2018-11-11T16:14:31.752Z,1.92
2018-11-11T16:16:59.392Z,2.12
2018-11-11T16:19:27.058Z,2.00
2018-11-11T16:21:54.749Z,2.10
2018-11-11T16:24:22.424Z,1.70
2018-11-11T16:26:50.072Z,2.77
2018-11-11T16:29:17.640Z,4.40
2018-11-11T16:31:45.322Z,3.90
2018-11-11T16:36:51.760Z,2.80
2018-11-11T16:39:19.498Z,2.90
2018-11-11T16:41:47.124Z,2.70
2018-11-11T16:44:14.716Z,3.58
2018-11-11T16:46:42.360Z,3.95
2018-11-11T16:49:10.025Z,2.97
2018-11-11T16:51:37.937Z,3.15
2018-11-11T16:54:05.676Z,3.80
2018-11-11T16:56:33.350Z,3.93
2018-11-11T16:59:00.977Z,4.70
2018-11-11T17:01:29.041Z,4.17
2018-11-11T17:03:56.677Z,4.87
2018-11-11T17:06:24.592Z,5.62
2018-11-11T17:08:52.234Z,5.80
2018-11-11T17:11:19.824Z,5.90
2018-11-11T17:13:47.473Z,5.80
2018-11-11T17:16:15.165Z,4.55
2018-11-11T17:18:42.800Z,5.97
2018-11-11T17:21:11.067Z,6.05
2018-11-11T17:23:38.680Z,8.15
2018-11-11T17:26:06.364Z,5.27
2018-11-11T17:28:34.019Z,4.50
2018-11-11T17:31:01.590Z,3.90
2018-11-11T17:33:29.238Z,4.42
2018-11-11T17:35:57.402Z,3.60
2018-11-11T17:38:24.986Z,3.67
2018-11-11T17:40:52.825Z,11.83
2018-11-11T17:43:20.505Z,19.85
2018-11-11T17:45:48.112Z,18.27
2018-11-11T17:48:15.802Z,14.98
2018-11-11T17:50:43.479Z,11.80
2018-11-11T17:53:11.329Z,9.87
2018-11-11T17:55:39.164Z,7.90
2018-11-11T17:58:06.770Z,6.07
2018-11-11T18:00:34.379Z,5.53
2018-11-11T18:03:02.786Z,6.70
2018-11-11T18:05:30.910Z,6.47
2018-11-11T18:07:58.910Z,7.72
2018-11-11T18:10:26.993Z,6.37
2018-11-11T18:12:54.621Z,6.55
2018-11-11T18:15:24.787Z,6.30
2018-11-11T18:17:52.373Z,6.40
2018-11-11T18:20:21.666Z,5.60
2018-11-11T18:22:50.151Z,5.10
2018-11-11T18:25:17.811Z,4.28
2018-11-11T18:27:45.451Z,3.95
2018-11-11T18:30:19.668Z,4.05
2018-11-11T18:32:47.344Z,6.97
2018-11-11T18:35:15.700Z,6.05
2018-11-11T18:37:43.323Z,5.95
2018-11-11T18:40:12.470Z,5.28
2018-11-11T18:42:39.964Z,5.30
2018-11-11T18:45:10.564Z,4.95
2018-11-11T18:47:38.323Z,4.10
2018-11-11T18:50:08.633Z,3.77
2018-11-11T18:52:36.274Z,3.45
2018-11-11T18:55:04.482Z,3.22
2018-11-11T18:57:32.100Z,3.15
2018-11-11T18:59:59.735Z,2.70
2018-11-11T19:02:27.277Z,2.87
2018-11-11T19:04:54.903Z,2.47
2018-11-11T19:07:22.437Z,3.83
2018-11-11T19:09:50.089Z,4.20
2018-11-11T19:12:17.680Z,4.20
2018-11-11T19:14:45.287Z,5.20
2018-11-11T19:17:12.887Z,6.57
2018-11-11T19:19:40.548Z,5.93
2018-11-11T19:22:08.355Z,5.33
2018-11-11T19:24:36.237Z,5.30
2018-11-11T19:27:03.884Z,4.63
2018-11-11T19:29:31.491Z,4.53
2018-11-11T19:31:59.092Z,4.27
2018-11-11T19:34:26.681Z,4.33
2018-11-11T19:36:54.255Z,3.70
2018-11-11T19:39:21.893Z,4.80
2018-11-11T19:41:49.464Z,3.67
2018-11-11T19:44:17.069Z,3.90
2018-11-11T19:46:44.625Z,4.60
2018-11-11T19:49:12.232Z,5.37
2018-11-11T19:51:39.854Z,4.40
2018-11-11T19:54:07.298Z,4.37
2018-11-11T19:56:34.900Z,4.40
2018-11-11T19:59:02.479Z,3.57
2018-11-11T20:01:30.134Z,3.10
2018-11-11T20:03:57.952Z,3.40
2018-11-11T20:06:25.496Z,3.10
2018-11-11T20:08:53.097Z,3.00
2018-11-11T20:11:20.835Z,3.00
2018-11-11T20:13:48.533Z,2.40
2018-11-11T20:16:16.271Z,3.43
2018-11-11T20:18:43.812Z,2.80
2018-11-11T20:21:11.424Z,2.90
2018-11-11T20:23:39.059Z,2.80
2018-11-11T20:26:06.689Z,2.50
2018-11-11T20:28:34.242Z,2.40
2018-11-11T20:31:01.843Z,3.60
2018-11-11T20:33:29.400Z,2.77
2018-11-11T20:35:57.141Z,2.77
2018-11-11T20:38:24.981Z,2.80
2018-11-11T20:40:53.255Z,2.30
2018-11-11T20:43:21.672Z,2.40
2018-11-11T20:45:49.438Z,2.20
2018-11-11T20:48:17.311Z,2.10
2018-11-11T20:50:44.896Z,2.60
2018-11-11T20:53:12.459Z,2.47
2018-11-11T20:55:40.140Z,4.22
2018-11-11T20:58:07.817Z,4.90
2018-11-11T21:00:36.646Z,3.60
2018-11-11T21:03:04.655Z,3.37
2018-11-11T21:05:32.293Z,3.13
2018-11-11T21:08:00.007Z,2.83
2018-11-11T21:10:28.404Z,2.50
2018-11-11T21:12:56.162Z,2.40
2018-11-11T21:15:25.065Z,2.20
2018-11-11T21:17:52.660Z,2.50
2018-11-11T21:20:22.836Z,2.13
2018-11-11T21:22:50.544Z,3.40
2018-11-11T21:25:18.182Z,7.30
2018-11-11T21:27:46.961Z,9.43
2018-11-11T21:30:20.944Z,10.77
2018-11-11T21:32:48.921Z,9.97
2018-11-11T21:35:16.585Z,9.20
2018-11-11T21:37:44.382Z,8.50
2018-11-11T21:40:14.042Z,8.07
2018-11-11T21:42:42.409Z,6.50
2018-11-11T21:45:11.463Z,7.83
2018-11-11T21:47:39.722Z,6.87
2018-11-11T21:50:09.220Z,6.67
2018-11-11T21:52:36.895Z,6.50
2018-11-11T21:55:05.505Z,5.63
2018-11-11T21:57:33.476Z,5.87
2018-11-11T22:00:01.081Z,5.60
2018-11-11T22:02:28.673Z,5.10
2018-11-11T22:04:56.326Z,4.80
2018-11-11T22:07:24.003Z,5.80
2018-11-11T22:09:51.771Z,5.20
2018-11-11T22:12:19.372Z,5.50
2018-11-11T22:14:47.110Z,5.53
2018-11-11T22:17:14.717Z,4.83
2018-11-11T22:19:42.319Z,4.80
2018-11-11T22:22:09.917Z,4.83
2018-11-11T22:24:37.552Z,5.03
2018-11-11T22:27:05.703Z,5.10
2018-11-11T22:29:33.571Z,4.00
2018-11-11T22:32:01.144Z,4.10
2018-11-11T22:34:28.831Z,4.00
2018-11-11T22:36:56.441Z,4.20
2018-11-11T22:39:24.044Z,4.40
2018-11-11T22:41:51.589Z,4.50
2018-11-11T22:44:19.137Z,3.80
2018-11-11T22:46:46.736Z,3.80
2018-11-11T22:49:14.322Z,3.77
2018-11-11T22:51:41.909Z,3.30
2018-11-11T22:54:09.460Z,3.40
2018-11-11T22:56:37.101Z,4.13
2018-11-11T22:59:05.096Z,4.10
2018-11-11T23:01:32.904Z,3.47
2018-11-11T23:04:00.485Z,4.77
2018-11-11T23:06:28.081Z,4.73
2018-11-11T23:08:55.685Z,4.33
2018-11-11T23:11:23.264Z,4.60
2018-11-11T23:13:50.855Z,4.33
2018-11-11T23:16:18.495Z,4.00
2018-11-11T23:18:46.040Z,3.97
2018-11-11T23:21:14.000Z,4.10
2018-11-11T23:23:41.602Z,3.43
2018-11-11T23:26:09.224Z,3.20
2018-11-11T23:28:36.854Z,3.40
2018-11-11T23:31:04.678Z,3.30
2018-11-11T23:33:32.277Z,3.33
2018-11-11T23:35:59.913Z,2.77
2018-11-11T23:38:27.579Z,3.50
2018-11-11T23:40:55.160Z,2.80
2018-11-11T23:43:22.772Z,2.60
2018-11-11T23:45:50.420Z,3.30
2018-11-11T23:48:18.105Z,4.37
2018-11-11T23:50:45.696Z,5.20
2018-11-11T23:53:13.339Z,4.93
2018-11-11T23:55:40.987Z,4.80
2018-11-11T23:58:08.641Z,4.83
